Time;durP1;ratioP1;P1;durP2;ratioP2;P2;SDS_P1;SDS_P2;PMS_P1;PMS_P2;Temp;Humidity;BMP_temperature;BMP_pressure;BME280_temperature;BME280_humidity;BME280_pressure;Samples;Min_cycle;Max_cycle;Signal;HPM_P1;HPM_P2
2023/10/07 00:02:12;;;;;;;7.70;2.83;;;;;;;16.23;100.00;102149.41;5094157;28;20051;-76
2023/10/07 00:04:41;;;;;;;8.32;3.75;;;;;;;16.24;100.00;102153.75;5093558;28;20069;-76
2023/10/07 00:07:10;;;;;;;5.43;2.80;;;;;;;16.26;100.00;102169.56;5081052;28;20483;-76
2023/10/07 00:09:43;;;;;;;8.25;2.97;;;;;;;16.27;100.00;102152.78;5074469;28;20335;-76
2023/10/07 00:12:14;;;;;;;11.02;3.70;;;;;;;16.27;100.00;102158.06;5074381;28;20078;-76
2023/10/07 00:14:43;;;;;;;9.00;3.25;;;;;;;16.26;100.00;102153.69;5074237;28;20429;-76
2023/10/07 00:17:16;;;;;;;9.30;3.78;;;;;;;16.27;100.00;102137.78;5074652;28;20044;-76
2023/10/07 00:19:46;;;;;;;8.38;3.00;;;;;;;16.27;100.00;102143.06;5074382;28;20038;-76
2023/10/07 00:22:14;;;;;;;7.82;3.47;;;;;;;16.27;100.00;102139.56;5074410;28;20043;-76
2023/10/07 00:24:43;;;;;;;12.68;3.72;;;;;;;16.27;100.00;102129.00;5080511;28;20281;-76
2023/10/07 00:27:30;;;;;;;16.10;3.75;;;;;;;16.23;100.00;102117.69;5093824;28;20031;-76
2023/10/07 00:29:58;;;;;;;8.85;3.50;;;;;;;16.26;100.00;102114.94;5097183;28;20031;-76
2023/10/07 00:32:27;;;;;;;;;;;;;;;16.27;100.00;102107.84;5097134;28;20026;-76
2023/10/07 00:34:54;;;;;;;11.20;3.38;;;;;;;16.27;100.00;102099.91;5097994;28;19934;-76
2023/10/07 00:37:20;;;;;;;8.30;3.53;;;;;;;16.29;100.00;102101.56;5097771;28;20063;-76
2023/10/07 00:39:46;;;;;;;13.10;3.63;;;;;;;16.27;100.00;102108.69;5097215;28;20028;-76
2023/10/07 00:42:12;;;;;;;10.52;3.35;;;;;;;16.29;100.00;102113.91;5097681;28;20024;-76
2023/10/07 00:44:37;;;;;;;8.00;2.88;;;;;;;16.30;100.00;102113.84;5096805;28;20288;-76
2023/10/07 00:49:39;;;;;;;11.45;3.80;;;;;;;16.31;100.00;102118.19;5097094;28;20070;-76
2023/10/07 00:52:11;;;;;;;11.38;3.95;;;;;;;16.29;100.00;102133.28;5097495;28;20263;-76
2023/10/07 00:54:49;;;;;;;5.45;2.97;;;;;;;16.32;100.00;102127.00;5096781;28;20078;-76
2023/10/07 01:00:05;;;;;;;10.45;3.33;;;;;;;16.36;100.00;102128.59;5097657;28;20032;-76
2023/10/07 01:02:33;;;;;;;7.53;2.72;;;;;;;16.35;100.00;102118.06;5096809;28;20051;-76
2023/10/07 01:05:00;;;;;;;8.60;2.45;;;;;;;16.38;100.00;102120.59;5096975;28;20036;-76
2023/10/07 01:07:31;;;;;;;5.80;2.88;;;;;;;16.39;100.00;102127.56;5083704;28;20343;-76
2023/10/07 01:10:15;;;;;;;6.13;2.92;;;;;;;16.39;100.00;102130.22;5077758;28;20040;-76
2023/10/07 01:12:42;;;;;;;8.50;3.13;;;;;;;16.39;100.00;102135.50;5076856;28;20238;-76
2023/10/07 01:15:26;;;;;;;9.20;3.45;;;;;;;16.40;100.00;102130.16;5077931;28;20223;-76
2023/10/07 01:18:05;;;;;;;12.40;2.88;;;;;;;16.40;100.00;102126.66;5077874;28;20032;-76
2023/10/07 01:20:58;;;;;;;7.68;3.20;;;;;;;16.43;100.00;102130.03;5089001;28;20396;-76
2023/10/07 01:23:32;;;;;;;6.28;2.85;;;;;;;16.43;100.00;102127.38;5096809;28;20358;-76
2023/10/07 01:25:59;;;;;;;14.93;3.42;;;;;;;16.44;100.00;102122.94;5097077;28;20028;-76
2023/10/07 01:28:26;;;;;;;6.20;3.10;;;;;;;16.44;100.00;102121.16;5097008;28;20019;-76
2023/10/07 01:31:07;;;;;;;6.45;2.92;;;;;;;16.46;100.00;102115.78;5097459;28;20191;-76
2023/10/07 01:33:39;;;;;;;12.13;3.40;;;;;;;16.47;100.00;102112.25;5096391;28;20024;-76
2023/10/07 01:36:27;;;;;;;8.35;2.72;;;;;;;16.47;100.00;102115.72;5096641;28;20047;-76
2023/10/07 01:38:53;;;;;;;3.95;2.45;;;;;;;16.48;100.00;102114.81;5096396;28;20266;-76
2023/10/07 01:41:27;;;;;;;8.57;3.38;;;;;;;16.47;100.00;102110.44;5096065;28;20034;-76
2023/10/07 01:43:58;;;;;;;4.10;2.50;;;;;;;16.48;100.00;102109.53;5096700;28;20024;-76
2023/10/07 01:46:27;;;;;;;5.20;2.42;;;;;;;16.51;100.00;102121.75;5096356;28;20028;-76
2023/10/07 01:49:12;;;;;;;;;;;;;;;16.50;100.00;102109.47;5097113;28;20031;-76
2023/10/07 01:51:45;;;;;;;3.55;2.47;;;;;;;16.49;100.00;102105.09;5096072;28;19916;-76
2023/10/07 01:54:15;;;;;;;3.72;2.28;;;;;;;16.51;100.00;102106.72;5096606;28;20071;-76
2023/10/07 01:56:40;;;;;;;4.30;2.20;;;;;;;16.50;100.00;102106.81;5095861;28;20331;-76
2023/10/07 02:01:42;;;;;;;3.72;2.15;;;;;;;16.54;100.00;102115.47;5081135;28;20078;-76
2023/10/07 02:04:17;;;;;;;3.28;1.65;;;;;;;16.55;100.00;102106.59;5096256;28;20101;-76
2023/10/07 02:06:54;;;;;;;5.22;2.33;;;;;;;16.55;100.00;102102.16;5081058;28;20048;-76
2023/10/07 02:09:24;;;;;;;4.25;2.20;;;;;;;16.56;100.00;102103.03;5077196;28;20025;-76
2023/10/07 02:12:11;;;;;;;11.57;3.17;;;;;;;16.57;100.00;102091.50;5080153;28;20043;-76
2023/10/07 02:14:37;;;;;;;7.45;2.60;;;;;;;16.58;100.00;102095.88;5090089;28;20024;-76
2023/10/07 02:17:03;;;;;;;5.70;2.60;;;;;;;16.57;100.00;102097.69;5080867;28;20366;-76
2023/10/07 02:19:29;;;;;;;9.05;2.92;;;;;;;16.56;100.00;102103.88;5095356;28;20032;-76
2023/10/07 02:22:00;;;;;;;5.05;2.28;;;;;;;16.58;100.00;102098.53;5082177;28;20054;-76
2023/10/07 02:24:29;;;;;;;4.95;2.30;;;;;;;16.58;100.00;102107.31;5076147;28;20046;-76
2023/10/07 02:27:19;;;;;;;5.95;3.00;;;;;;;16.58;100.00;102101.19;5080434;28;20028;-76
2023/10/07 02:29:57;;;;;;;10.93;3.40;;;;;;;16.56;100.00;102109.19;5075671;28;20369;-76
2023/10/07 02:32:22;;;;;;;6.00;2.58;;;;;;;16.56;100.00;102113.63;5081145;28;20032;-76
2023/10/07 02:34:51;;;;;;;4.93;2.80;;;;;;;16.56;100.00;102108.31;5094927;28;20042;-76
2023/10/07 02:37:25;;;;;;;7.47;3.22;;;;;;;16.55;100.00;102094.22;5095475;28;20028;-76
2023/10/07 02:40:03;;;;;;;4.68;2.72;;;;;;;16.55;100.00;102096.88;5086569;28;20077;-76
2023/10/07 02:42:28;;;;;;;5.05;2.25;;;;;;;16.55;100.00;102094.22;5086928;28;20067;-76
2023/10/07 02:45:28;;;;;;;5.15;2.88;;;;;;;16.56;100.00;102092.47;5094001;28;20040;-76
2023/10/07 02:47:54;;;;;;;2.85;2.03;;;;;;;16.55;100.00;102091.56;5081591;28;20119;-76
2023/10/07 02:50:20;;;;;;;3.53;2.03;;;;;;;16.55;100.00;102083.66;5076937;28;20040;-76
2023/10/07 02:52:46;;;;;;;3.80;2.63;;;;;;;16.54;100.00;102071.38;5078962;28;20802;-76
2023/10/07 02:57:47;;;;;;;6.82;2.75;;;;;;;16.54;100.00;102075.81;5074847;28;20055;-76
2023/10/07 03:00:35;;;;;;;11.02;3.33;;;;;;;16.51;100.00;102077.63;5075830;28;20020;-75
2023/10/07 03:03:20;;;;;;;5.00;3.15;;;;;;;16.53;100.00;102079.38;5080365;28;20197;-75
2023/10/07 03:05:45;;;;;;;4.13;2.38;;;;;;;16.54;100.00;102081.09;5081835;28;20028;-75
2023/10/07 03:08:19;;;;;;;4.43;2.38;;;;;;;16.55;100.00;102082.78;5075239;28;20062;-75
2023/10/07 03:11:03;;;;;;;4.28;2.47;;;;;;;16.56;100.00;102080.09;5086393;28;20020;-74
2023/10/07 03:13:28;;;;;;;2.53;2.15;;;;;;;16.55;100.00;102088.94;5094295;28;20122;-75
2023/10/07 03:21:55;;;;;;;10.00;3.17;;;;;;;16.53;100.00;102093.44;5087193;28;20040;-75
2023/10/07 03:27:05;;;;;;;7.82;3.67;;;;;;;16.56;100.00;102087.16;5094625;28;20031;-75
2023/10/07 03:29:37;;;;;;;6.15;2.60;;;;;;;16.56;100.00;102087.16;5094003;28;20265;-75
2023/10/07 03:32:12;;;;;;;6.32;2.60;;;;;;;16.55;100.00;102086.28;5094040;28;20047;-75
2023/10/07 03:34:37;;;;;;;7.85;2.42;;;;;;;16.56;100.00;102079.25;5094077;28;20263;-75
2023/10/07 03:42:18;;;;;;;7.82;3.33;;;;;;;16.56;100.00;102077.44;5075292;28;20038;-75
2023/10/07 03:44:46;;;;;;;10.88;3.47;;;;;;;16.56;100.00;102080.09;5073873;28;20254;-75
2023/10/07 03:47:11;;;;;;;8.75;2.83;;;;;;;16.58;100.00;102080.88;5083605;28;20079;-74
2023/10/07 03:49:40;;;;;;;8.07;2.83;;;;;;;16.58;100.00;102082.66;5093982;28;20034;-75
2023/10/07 03:52:08;;;;;;;5.40;2.10;;;;;;;16.58;100.00;102078.22;5083242;28;20326;-75
2023/10/07 03:54:34;;;;;;;4.82;2.90;;;;;;;16.59;100.00;102085.25;5077273;28;20104;-75
2023/10/07 03:57:00;;;;;;;5.32;2.70;;;;;;;16.59;100.00;102085.25;5087955;28;20291;-75
2023/10/07 03:59:32;;;;;;;9.93;2.97;;;;;;;16.59;100.00;102087.00;5074564;28;20055;-75
2023/10/07 04:01:58;;;;;;;7.45;3.20;;;;;;;16.57;100.00;102084.47;5075590;28;20350;-75
2023/10/07 04:04:24;;;;;;;8.13;3.35;;;;;;;16.58;100.00;102082.66;5087612;28;20040;-75
2023/10/07 04:06:50;;;;;;;10.40;2.92;;;;;;;16.58;100.00;102088.81;5080872;28;20240;-75
2023/10/07 04:09:16;;;;;;;5.55;2.97;;;;;;;16.60;100.00;102078.16;5081573;28;20070;-75
2023/10/07 04:11:48;;;;;;;4.20;3.10;;;;;;;16.59;100.00;102069.38;5080804;28;20343;-75
2023/10/07 04:14:30;;;;;;;6.88;2.67;;;;;;;16.59;100.00;102068.50;5081870;28;20390;-74
2023/10/07 04:17:06;;;;;;;4.72;2.70;;;;;;;16.59;100.00;102064.09;5079846;28;20062;-74
2023/10/07 04:19:42;;;;;;;3.75;2.33;;;;;;;16.59;100.00;102065.84;5080942;28;20025;-75
2023/10/07 04:22:11;;;;;;;6.55;3.40;;;;;;;16.58;100.00;102054.44;5087256;28;20392;-75
2023/10/07 04:24:43;;;;;;;7.45;3.20;;;;;;;16.58;100.00;102057.06;5080575;28;20227;-75
2023/10/07 04:27:08;;;;;;;9.07;3.15;;;;;;;16.59;100.00;102045.56;5094638;28;20224;-75
2023/10/07 04:29:34;;;;;;;7.95;2.97;;;;;;;16.59;100.00;102053.50;5098093;28;20346;-75
2023/10/07 04:32:13;;;;;;;4.72;2.45;;;;;;;16.59;100.00;102056.16;5100191;28;20046;-75
2023/10/07 04:35:00;;;;;;;7.22;2.85;;;;;;;16.59;100.00;102050.88;5086407;28;20017;-75
2023/10/07 04:37:30;;;;;;;10.18;3.10;;;;;;;16.59;100.00;102049.97;5080825;28;20047;-74
2023/10/07 04:42:38;;;;;;;14.35;3.40;;;;;;;16.54;100.00;102050.22;5099814;28;20032;-75
2023/10/07 04:45:22;;;;;;;6.15;3.10;;;;;;;16.55;100.00;102051.06;5100470;28;20046;-75
2023/10/07 04:47:57;;;;;;;9.00;2.85;;;;;;;16.55;100.00;102059.00;5099700;28;20076;-74
2023/10/07 04:50:33;;;;;;;4.45;2.15;;;;;;;16.56;100.00;102058.94;5100087;28;20207;-75
2023/10/07 04:53:03;;;;;;;3.25;2.25;;;;;;;16.55;100.00;102049.28;5080790;28;20239;-74
2023/10/07 04:55:28;;;;;;;3.28;2.53;;;;;;;16.54;100.00;102052.84;5080208;28;20262;-75
2023/10/07 05:02:59;;;;;;;5.65;3.00;;;;;;;16.51;100.00;102051.19;5092623;28;20842;-74
2023/10/07 05:05:28;;;;;;;7.63;3.15;;;;;;;16.51;100.00;102053.84;5095293;28;20231;-75
2023/10/07 05:07:58;;;;;;;4.13;2.60;;;;;;;16.51;100.00;102056.47;5094929;28;20251;-74
2023/10/07 05:10:24;;;;;;;6.20;2.97;;;;;;;16.52;100.00;102054.72;5100429;28;20020;-74
2023/10/07 05:12:54;;;;;;;8.95;2.75;;;;;;;16.53;100.00;102063.50;5098864;28;20208;-75
2023/10/07 05:15:20;;;;;;;6.22;2.60;;;;;;;16.53;100.00;102066.16;5097572;28;20107;-74
2023/10/07 05:17:45;;;;;;;9.32;3.30;;;;;;;16.51;100.00;102066.22;5096817;28;20055;-75
2023/10/07 05:20:27;;;;;;;6.38;2.88;;;;;;;16.53;100.00;102080.22;5097132;28;20031;-75
2023/10/07 05:22:55;;;;;;;14.23;3.50;;;;;;;16.51;100.00;102077.63;5096875;28;20036;-74
2023/10/07 05:25:21;;;;;;;6.22;3.20;;;;;;;16.52;100.00;102083.81;5090223;28;20051;-75
2023/10/07 05:27:49;;;;;;;7.32;3.20;;;;;;;16.51;100.00;102084.72;5090519;28;20373;-75
2023/10/07 05:30:16;;;;;;;7.07;2.97;;;;;;;16.51;100.00;102077.63;5096445;28;20303;-75
2023/10/07 05:32:41;;;;;;;6.60;3.05;;;;;;;16.53;100.00;102074.94;5091424;28;20040;-75
2023/10/07 05:35:08;;;;;;;8.55;3.15;;;;;;;16.53;100.00;102060.84;5076936;28;20052;-75
2023/10/07 05:37:33;;;;;;;9.23;2.72;;;;;;;16.52;100.00;102065.31;5076294;28;20362;-75
2023/10/07 05:39:59;;;;;;;12.75;3.38;;;;;;;16.51;100.00;102075.00;5075691;28;20016;-75
2023/10/07 05:42:25;;;;;;;8.57;3.03;;;;;;;16.50;100.00;102073.28;5076398;28;20040;-75
2023/10/07 05:44:52;;;;;;;5.85;2.95;;;;;;;16.51;100.00;102076.78;5078926;28;20028;-75
2023/10/07 05:47:18;;;;;;;5.00;2.65;;;;;;;16.54;100.00;102086.38;5081460;28;20044;-75
2023/10/07 05:49:43;;;;;;;8.52;3.95;;;;;;;16.54;100.00;102081.09;5075370;28;20243;-75
2023/10/07 05:52:09;;;;;;;6.32;2.92;;;;;;;16.54;100.00;102086.38;5083500;28;20055;-75
2023/10/07 05:54:34;;;;;;;7.90;2.90;;;;;;;16.56;100.00;102084.53;5075923;28;20036;-74
2023/10/07 05:57:03;;;;;;;3.67;2.55;;;;;;;16.55;100.00;102082.78;5082559;28;20086;-75
2023/10/07 05:59:33;;;;;;;6.18;2.67;;;;;;;16.55;100.00;102080.16;5079128;28;20239;-75
2023/10/07 06:02:01;;;;;;;7.25;3.53;;;;;;;16.54;100.00;102076.66;5078947;28;20040;-75
2023/10/07 06:04:28;;;;;;;13.75;4.03;;;;;;;16.53;100.00;102079.38;5082516;28;20070;-75
2023/10/07 06:06:53;;;;;;;6.45;3.10;;;;;;;16.54;100.00;102071.38;5083088;28;20466;-74
2023/10/07 06:09:21;;;;;;;5.60;3.10;;;;;;;16.55;100.00;102073.06;5085754;28;20028;-75
2023/10/07 06:11:48;;;;;;;5.93;2.90;;;;;;;16.57;100.00;102063.31;5081897;28;20043;-75
2023/10/07 06:14:18;;;;;;;4.25;2.75;;;;;;;16.57;100.00;102078.28;5084281;28;20066;-75
2023/10/07 06:16:44;;;;;;;4.00;2.85;;;;;;;16.56;100.00;102081.88;5089028;28;20036;-75
2023/10/07 06:19:13;;;;;;;3.78;2.63;;;;;;;16.57;100.00;102076.53;5079772;28;20059;-75
2023/10/07 06:21:50;;;;;;;5.25;3.03;;;;;;;16.57;100.00;102083.59;5077045;28;20473;-74
2023/10/07 06:24:20;;;;;;;3.40;2.55;;;;;;;16.57;100.00;102086.22;5082429;28;20036;-75
2023/10/07 06:26:48;;;;;;;6.63;3.10;;;;;;;16.57;100.00;102075.66;5087951;28;20337;-75
2023/10/07 06:29:18;;;;;;;9.38;3.42;;;;;;;16.57;100.00;102065.06;5090759;28;20027;-75
2023/10/07 06:31:55;;;;;;;7.68;3.50;;;;;;;16.57;100.00;102058.00;5080941;28;20040;-75
2023/10/07 06:34:25;;;;;;;9.55;3.10;;;;;;;16.58;100.00;102050.94;5092041;28;20030;-75
2023/10/07 06:36:52;;;;;;;5.25;3.03;;;;;;;16.58;100.00;102058.88;5086926;28;20035;-75
2023/10/07 06:39:19;;;;;;;10.90;3.50;;;;;;;16.58;100.00;102066.78;5084404;28;20036;-75
2023/10/07 06:41:44;;;;;;;16.98;4.38;;;;;;;16.58;100.00;102065.00;5078812;28;20985;-74
2023/10/07 06:44:10;;;;;;;4.45;3.25;;;;;;;16.59;100.00;102061.44;5084617;28;20083;-74
2023/10/07 06:46:41;;;;;;;6.72;3.20;;;;;;;16.61;100.00;102064.88;5088064;28;20208;-75
2023/10/07 06:49:18;;;;;;;16.05;3.90;;;;;;;16.62;100.00;102071.00;5086593;28;20274;-75
2023/10/07 06:51:45;;;;;;;16.02;4.28;;;;;;;16.59;100.00;102090.53;5088790;28;20105;-74
2023/10/07 06:54:13;;;;;;;10.55;3.38;;;;;;;16.60;100.00;102096.66;5081840;28;20111;-75
2023/10/07 06:56:39;;;;;;;9.05;3.58;;;;;;;16.63;100.00;102101.81;5081721;28;20040;-74
2023/10/07 06:59:06;;;;;;;13.15;4.80;;;;;;;16.63;100.00;102092.09;5087378;28;20106;-75
2023/10/07 07:01:51;;;;;;;20.20;4.78;;;;;;;16.65;100.00;102078.81;5087632;28;20031;-75
2023/10/07 07:04:19;;;;;;;16.38;4.13;;;;;;;16.66;100.00;102089.31;5092685;28;20212;-75
2023/10/07 07:06:46;;;;;;;12.90;3.42;;;;;;;16.68;100.00;102092.75;5087584;28;20036;-75
2023/10/07 07:12:03;;;;;;;14.40;3.90;;;;;;;16.72;100.00;102108.47;5079236;28;20393;-75
2023/10/07 07:14:33;;;;;;;18.90;4.30;;;;;;;16.70;100.00;102114.69;5084101;28;20036;-75
2023/10/07 07:17:29;;;;;;;15.65;4.72;;;;;;;16.68;100.00;102118.31;5082386;28;20040;-75
2023/10/07 07:20:19;;;;;;;;;;;;;;;16.67;100.00;102114.81;5090939;28;20250;-75
2023/10/07 07:22:39;;;;;;;8.90;3.60;;;;;;;16.69;100.00;102117.41;5077280;28;19939;-75
2023/10/07 07:25:12;;;;;;;10.23;3.80;;;;;;;16.69;100.00;102133.28;5077985;28;20347;-75
2023/10/07 07:27:48;;;;;;;18.42;4.63;;;;;;;16.67;100.00;102135.97;5080049;28;20031;-75
2023/10/07 07:30:29;;;;;;;10.70;3.63;;;;;;;16.70;100.00;102141.16;5084676;28;20039;-75
2023/10/07 07:32:58;;;;;;;15.18;3.90;;;;;;;16.69;100.00;102142.06;5079445;28;20036;-75
2023/10/07 07:35:37;;;;;;;10.77;3.70;;;;;;;16.67;100.00;102138.63;5082563;28;20309;-75
2023/10/07 07:38:05;;;;;;;8.90;3.67;;;;;;;16.70;100.00;102142.94;5080412;28;20338;-74
2023/10/07 07:40:40;;;;;;;11.93;3.78;;;;;;;16.69;100.00;102144.69;5080416;28;20037;-75
2023/10/07 07:43:07;;;;;;;7.45;3.28;;;;;;;16.71;100.00;102142.00;5077259;28;20041;-75
2023/10/07 07:45:35;;;;;;;9.55;3.05;;;;;;;16.72;100.00;102148.13;5092331;28;20103;-75
2023/10/07 07:48:05;;;;;;;9.75;4.13;;;;;;;16.72;100.00;102148.13;5093656;28;20047;-75
2023/10/07 07:50:35;;;;;;;16.52;3.58;;;;;;;16.73;100.00;102137.50;5083088;28;20036;-75
2023/10/07 07:53:06;;;;;;;14.90;3.83;;;;;;;16.76;100.00;102137.34;5090825;28;20040;-75
2023/10/07 07:55:43;;;;;;;10.57;4.22;;;;;;;16.78;100.00;102127.56;5085794;28;20400;-75
2023/10/07 07:58:09;;;;;;;13.32;3.55;;;;;;;16.80;100.00;102130.13;5084822;28;20105;-75
2023/10/07 08:00:40;;;;;;;13.93;4.00;;;;;;;16.83;100.00;102122.94;5089228;28;20563;-75
2023/10/07 08:03:07;;;;;;;20.55;4.28;;;;;;;16.84;100.00;102123.78;5088835;28;20042;-75
2023/10/07 08:05:35;;;;;;;13.15;3.92;;;;;;;16.86;100.00;102116.63;5087609;28;20233;-75
2023/10/07 08:08:09;;;;;;;17.92;3.47;;;;;;;16.86;100.00;102130.75;5088511;28;20032;-75
2023/10/07 08:10:35;;;;;;;10.25;3.47;;;;;;;16.88;100.00;102131.53;5088869;28;20258;-75
2023/10/07 08:13:01;;;;;;;17.08;4.05;;;;;;;16.91;100.00;102138.47;5077926;28;20062;-75
2023/10/07 08:15:38;;;;;;;18.92;4.00;;;;;;;16.94;100.00;102140.97;5080441;28;20271;-75
2023/10/07 08:18:06;;;;;;;18.05;4.10;;;;;;;16.95;100.00;102150.59;5078835;28;20032;-74
2023/10/07 08:20:44;;;;;;;7.10;3.13;;;;;;;16.98;100.00;102142.53;5092685;28;20038;-74
2023/10/07 08:23:22;;;;;;;17.80;4.60;;;;;;;16.98;100.00;102145.19;5084534;28;20032;-74
2023/10/07 08:25:49;;;;;;;10.27;3.70;;;;;;;16.99;100.00;102138.97;5077670;28;20056;-75
2023/10/07 08:28:18;;;;;;;13.30;4.03;;;;;;;17.02;100.00;102151.19;5077343;28;20044;-74
2023/10/07 08:30:47;;;;;;;19.45;3.58;;;;;;;17.03;100.00;102134.38;5078665;28;20370;-75
2023/10/07 08:33:14;;;;;;;11.70;3.85;;;;;;;17.05;100.00;102141.31;5086208;28;20036;-75
2023/10/07 08:35:43;;;;;;;9.52;3.80;;;;;;;17.10;100.00;102153.47;5084408;28;20085;-75
2023/10/07 08:41:04;;;;;;;16.92;4.38;;;;;;;17.12;100.00;102135.72;5086097;28;20222;-75
2023/10/07 08:43:37;;;;;;;11.07;3.45;;;;;;;17.16;100.00;102137.31;5082732;28;20233;-75
2023/10/07 08:46:08;;;;;;;13.13;3.67;;;;;;;17.17;100.00;102137.25;5087229;28;20284;-75
2023/10/07 08:48:38;;;;;;;20.55;5.38;;;;;;;17.21;100.00;102135.31;5084191;28;20043;-75
2023/10/07 08:51:14;;;;;;;16.67;4.57;;;;;;;17.23;100.00;102136.09;5091233;28;20350;-75
2023/10/07 08:53:40;;;;;;;21.52;4.05;;;;;;;17.22;100.00;102135.19;5090296;28;20024;-76
2023/10/07 08:56:09;;;;;;;15.68;3.35;;;;;;;17.24;100.00;102149.22;5088924;28;20085;-75
2023/10/07 08:58:38;;;;;;;29.02;4.25;;;;;;;17.24;100.00;102165.09;5084277;28;20234;-75
2023/10/07 09:01:07;;;;;;;14.27;4.75;;;;;;;17.22;100.00;102152.88;5086649;28;20059;-75
2023/10/07 09:03:39;;;;;;;14.38;4.18;;;;;;;17.23;100.00;102147.53;5084795;28;20058;-75
2023/10/07 09:06:08;;;;;;;18.45;4.50;;;;;;;17.23;100.00;102138.75;5089069;28;20024;-75
2023/10/07 09:08:35;;;;;;;10.45;4.32;;;;;;;17.21;100.00;102136.16;5084966;28;20052;-75
2023/10/07 09:11:06;;;;;;;12.55;3.95;;;;;;;17.19;100.00;102137.16;5088193;28;20380;-75
2023/10/07 09:13:33;;;;;;;13.20;4.00;;;;;;;17.19;100.00;102138.03;5085239;28;20232;-75
2023/10/07 09:16:06;;;;;;;15.57;3.72;;;;;;;17.20;100.00;102138.88;5083439;28;20219;-75
2023/10/07 09:18:41;;;;;;;11.32;3.92;;;;;;;17.23;100.00;102141.38;5093436;28;20358;-75
2023/10/07 09:21:09;;;;;;;13.43;4.30;;;;;;;17.27;100.00;102135.00;5091363;28;20105;-75
2023/10/07 09:23:43;;;;;;;18.92;4.18;;;;;;;17.28;100.00;102126.09;5092162;28;20031;-76
2023/10/07 09:26:44;;;;;;;20.10;4.78;;;;;;;17.31;100.00;102128.63;5094171;28;20034;-75
2023/10/07 09:29:15;;;;;;;14.57;4.47;;;;;;;17.34;100.00;102136.41;5089011;28;20056;-75
2023/10/07 09:31:42;;;;;;;19.40;4.63;;;;;;;17.37;100.00;102136.28;5089827;28;20047;-75
2023/10/07 09:34:29;;;;;;;17.75;4.13;;;;;;;17.40;100.00;102151.16;5082150;28;20239;-75
2023/10/07 09:36:57;;;;;;;12.02;4.00;;;;;;;17.44;100.00;102148.28;5080488;28;20383;-75
2023/10/07 09:39:34;;;;;;;15.75;4.10;;;;;;;17.49;100.00;102157.78;5086122;28;20032;-75
2023/10/07 09:42:04;;;;;;;17.42;4.50;;;;;;;17.51;100.00;102180.59;5085945;28;20039;-75
2023/10/07 09:44:31;;;;;;;13.50;4.18;;;;;;;17.55;100.00;102170.72;5085859;28;20131;-75
2023/10/07 09:47:10;;;;;;;10.70;3.60;;;;;;;17.57;100.00;102182.97;5084914;28;20318;-75
2023/10/07 09:49:36;;;;;;;9.48;3.42;;;;;;;17.58;100.00;102168.78;5087788;28;20483;-75
2023/10/07 09:52:17;;;;;;;10.80;3.50;;;;;;;17.62;99.81;102174.78;5086636;28;20020;-75
2023/10/07 09:54:47;;;;;;;9.88;3.40;;;;;;;17.63;99.68;102182.66;5090906;28;20039;-75
2023/10/07 09:57:42;;;;;;;10.00;3.70;;;;;;;17.63;98.70;102201.22;5091997;28;20036;-75
2023/10/07 10:03:20;;;;;;;10.80;2.88;;;;;;;17.70;98.49;102180.56;5091165;28;20043;-75
2023/10/07 10:06:19;;;;;;;6.63;3.03;;;;;;;17.72;98.43;102176.06;5090409;28;20032;-75
2023/10/07 10:09:09;;;;;;;9.45;3.83;;;;;;;17.74;97.94;102174.19;5090892;28;20035;-75
2023/10/07 10:16:57;;;;;;;13.60;4.18;;;;;;;17.83;97.19;102165.78;5080917;28;20139;-74
2023/10/07 10:19:47;;;;;;;8.15;3.05;;;;;;;17.86;96.94;102169.22;5087915;28;20069;-75
2023/10/07 10:22:22;;;;;;;15.20;3.15;;;;;;;17.87;96.85;102169.16;5085039;28;20044;-75
2023/10/07 10:24:48;;;;;;;8.88;3.70;;;;;;;17.89;96.42;102163.78;5088853;28;20027;-74
2023/10/07 10:27:15;;;;;;;8.75;3.25;;;;;;;17.91;96.74;102162.75;5082441;28;20041;-75
2023/10/07 10:30:04;;;;;;;8.73;3.20;;;;;;;17.93;96.64;102171.50;5079003;28;20430;-74
2023/10/07 10:32:36;;;;;;;13.75;3.35;;;;;;;17.94;96.60;102172.38;5080879;28;20050;-76
2023/10/07 10:35:11;;;;;;;18.05;4.00;;;;;;;17.92;96.17;102185.69;5082924;28;20040;-75
2023/10/07 10:37:37;;;;;;;10.80;3.70;;;;;;;17.91;96.16;102183.13;5089800;28;20031;-75
2023/10/07 10:40:14;;;;;;;7.93;3.08;;;;;;;17.93;96.25;102184.75;5092545;28;20252;-74
2023/10/07 10:42:44;;;;;;;11.35;3.53;;;;;;;17.95;96.34;102177.56;5090069;28;20104;-75
2023/10/07 10:45:20;;;;;;;8.18;3.63;;;;;;;17.96;96.31;102181.09;5080977;28;20040;-75
2023/10/07 10:47:56;;;;;;;13.20;4.85;;;;;;;17.95;96.31;102187.31;5081268;28;20095;-75
2023/10/07 10:50:28;;;;;;;7.70;3.92;;;;;;;17.96;96.37;102195.19;5089386;28;20069;-75
2023/10/07 10:52:55;;;;;;;15.93;4.35;;;;;;;17.95;96.55;102185.53;5091000;28;20055;-75
2023/10/07 10:55:24;;;;;;;8.27;3.38;;;;;;;17.98;96.42;102203.06;5094341;28;20040;-75
2023/10/07 10:57:52;;;;;;;6.53;3.00;;;;;;;18.01;96.67;102192.34;5080909;28;20040;-75
2023/10/07 11:00:22;;;;;;;11.13;3.90;;;;;;;18.05;97.12;102190.38;5085015;28;20036;-75
2023/10/07 11:02:49;;;;;;;8.45;3.63;;;;;;;18.08;96.59;102196.38;5093819;28;20225;-74
2023/10/07 11:05:15;;;;;;;10.10;3.97;;;;;;;18.12;96.56;102194.41;5094827;28;20031;-75
2023/10/07 11:07:41;;;;;;;15.98;4.20;;;;;;;18.14;96.45;102197.88;5087731;28;20330;-75
2023/10/07 11:10:08;;;;;;;6.50;3.55;;;;;;;18.17;96.28;102190.63;5085163;28;20036;-74
2023/10/07 11:12:36;;;;;;;8.60;3.75;;;;;;;18.18;96.21;102194.97;5084775;28;20207;-75
2023/10/07 11:15:12;;;;;;;10.25;3.85;;;;;;;18.17;95.63;102201.22;5091652;28;20095;-75
2023/10/07 11:17:41;;;;;;;6.90;3.38;;;;;;;18.21;95.76;102197.47;5093539;28;20231;-75
2023/10/07 11:20:09;;;;;;;8.68;3.63;;;;;;;18.20;95.58;102198.38;5085532;28;20526;-75
2023/10/07 11:22:38;;;;;;;10.70;4.13;;;;;;;18.24;95.83;102196.44;5090623;28;20039;-75
2023/10/07 11:25:06;;;;;;;8.10;3.10;;;;;;;18.25;95.96;102190.22;5093242;28;20028;-75
2023/10/07 11:27:32;;;;;;;8.05;2.97;;;;;;;18.25;96.19;102192.00;5088532;28;20098;-75
2023/10/07 11:30:01;;;;;;;8.00;3.30;;;;;;;18.25;95.99;102197.31;5088289;28;20039;-75
2023/10/07 11:32:30;;;;;;;7.03;2.92;;;;;;;18.23;96.21;102202.69;5092667;28;20100;-75
2023/10/07 11:34:57;;;;;;;6.55;2.97;;;;;;;18.23;96.10;102192.94;5088143;28;20111;-75
2023/10/07 11:37:23;;;;;;;5.28;2.83;;;;;;;18.26;96.34;102191.06;5092806;28;20043;-74
2023/10/07 11:39:49;;;;;;;9.07;3.40;;;;;;;18.27;96.00;102195.44;5083223;28;20107;-75
2023/10/07 11:42:20;;;;;;;7.20;4.22;;;;;;;18.27;95.60;102201.59;5074581;28;20032;-75
2023/10/07 11:44:55;;;;;;;12.00;4.22;;;;;;;18.29;95.63;102201.50;5093880;28;20123;-75
2023/10/07 11:47:23;;;;;;;3.72;2.80;;;;;;;18.31;95.30;102205.78;5089185;28;20077;-76
2023/10/07 11:49:49;;;;;;;10.07;4.00;;;;;;;18.29;94.52;102201.50;5092616;28;20050;-75
2023/10/07 11:52:15;;;;;;;6.32;3.28;;;;;;;18.29;94.58;102197.06;5086826;28;20066;-75
2023/10/07 11:54:42;;;;;;;8.60;4.03;;;;;;;18.30;94.29;102212.06;5093667;28;20432;-75
2023/10/07 11:57:09;;;;;;;6.55;3.50;;;;;;;18.33;94.52;102203.06;5086090;28;20306;-75
2023/10/07 11:59:36;;;;;;;9.85;3.30;;;;;;;18.35;94.64;102204.69;5080260;28;20103;-75
2023/10/07 12:02:09;;;;;;;8.95;3.28;;;;;;;18.37;94.61;102205.50;5082357;28;20113;-75
2023/10/07 12:04:39;;;;;;;7.10;3.08;;;;;;;18.39;94.88;102216.00;5087430;28;20028;-75
2023/10/07 12:07:08;;;;;;;6.97;2.97;;;;;;;18.41;94.72;102209.69;5083898;28;20054;-75
2023/10/07 12:09:34;;;;;;;13.73;4.03;;;;;;;18.37;93.98;102204.59;5087149;28;20055;-75
2023/10/07 12:12:02;;;;;;;9.80;3.60;;;;;;;18.37;94.07;102201.97;5082154;28;20327;-76
2023/10/07 12:14:32;;;;;;;10.85;4.07;;;;;;;18.36;93.83;102217.03;5088526;28;20042;-75
2023/10/07 12:16:58;;;;;;;9.30;3.97;;;;;;;18.36;93.73;102211.72;5089100;28;20042;-75
2023/10/07 12:19:25;;;;;;;6.80;3.33;;;;;;;18.36;94.10;102198.47;5086568;28;20060;-75
2023/10/07 12:21:52;;;;;;;9.38;4.03;;;;;;;18.36;94.12;102203.75;5087246;28;20375;-75